Terminal Aerodrome Forecast
Issued by NWS Jackson, MS

Home | Current Version | Previous Version | Text Only | Print | Product List | Glossary On
Versions: 1 2 3 4 5 6 7 8 9 10 11 12 13
000
FTUS44 KJAN 271742
TAFGWO
TAF
KGWO 271742Z 2718/2818 17009KT P6SM SHRA VCTS FEW017 BKN035CB
     FM272100 14005KT P6SM FEW060 BKN200
     FM281000 15003KT 3SM BR OVC005
     FM281500 15004KT P6SM BKN020=

USA.gov is the U.S. government's official web portal to all federal, state and local government web resources and services.